sensor_id;sensor_type;location;lat;lon;timestamp;temperature;humidity
78731;SHT31;68055;51.978;5.658;2024-02-26T15:14:07;10.8;65.7
78731;SHT31;68055;51.978;5.658;2024-02-26T15:16:37;10.6;65.4
78731;SHT31;68055;51.978;5.658;2024-02-26T15:19:05;10.4;65.2
78731;SHT31;68055;51.978;5.658;2024-02-26T15:21:34;10.3;65.0
78731;SHT31;68055;51.978;5.658;2024-02-26T15:24:08;10.2;65.0
78731;SHT31;68055;51.978;5.658;2024-02-26T15:26:37;10.1;65.1
78731;SHT31;68055;51.978;5.658;2024-02-26T15:29:06;10.0;65.6
78731;SHT31;68055;51.978;5.658;2024-02-26T15:31:36;9.9;66.4
78731;SHT31;68055;51.978;5.658;2024-02-26T15:34:07;9.9;66.7
78731;SHT31;68055;51.978;5.658;2024-02-26T15:36:36;9.8;66.7
78731;SHT31;68055;51.978;5.658;2024-02-26T15:39:04;9.7;67.2
78731;SHT31;68055;51.978;5.658;2024-02-26T15:41:33;9.7;67.8
78731;SHT31;68055;51.978;5.658;2024-02-26T15:44:02;9.6;67.8
78731;SHT31;68055;51.978;5.658;2024-02-26T15:46:33;9.6;67.6
78731;SHT31;68055;51.978;5.658;2024-02-26T15:49:01;9.5;67.6
78731;SHT31;68055;51.978;5.658;2024-02-26T15:51:29;9.5;68.0
78731;SHT31;68055;51.978;5.658;2024-02-26T15:53:58;9.4;68.1
78731;SHT31;68055;51.978;5.658;2024-02-26T15:56:27;9.4;67.9
78731;SHT31;68055;51.978;5.658;2024-02-26T15:58:58;9.4;67.6
78731;SHT31;68055;51.978;5.658;2024-02-26T16:01:27;9.4;68.2
78731;SHT31;68055;51.978;5.658;2024-02-26T16:03:55;9.3;67.7
78731;SHT31;68055;51.978;5.658;2024-02-26T16:06:30;9.3;68.1
78731;SHT31;68055;51.978;5.658;2024-02-26T16:09:00;9.3;67.8
78731;SHT31;68055;51.978;5.658;2024-02-26T16:11:29;9.3;68.2
78731;SHT31;68055;51.978;5.658;2024-02-26T16:14:09;9.3;68.3
78731;SHT31;68055;51.978;5.658;2024-02-26T16:16:42;9.2;67.8
78731;SHT31;68055;51.978;5.658;2024-02-26T16:19:15;9.2;67.8
78731;SHT31;68055;51.978;5.658;2024-02-26T16:21:45;9.2;67.8
78731;SHT31;68055;51.978;5.658;2024-02-26T16:24:14;9.2;67.3
78731;SHT31;68055;51.978;5.658;2024-02-26T16:26:42;9.2;67.7
78731;SHT31;68055;51.978;5.658;2024-02-26T16:29:11;9.2;68.0
78731;SHT31;68055;51.978;5.658;2024-02-26T16:31:39;9.2;67.7
78731;SHT31;68055;51.978;5.658;2024-02-26T16:34:08;9.2;68.0
78731;SHT31;68055;51.978;5.658;2024-02-26T16:36:36;9.2;68.4
78731;SHT31;68055;51.978;5.658;2024-02-26T16:39:05;9.2;67.7
78731;SHT31;68055;51.978;5.658;2024-02-26T16:41:35;9.1;67.7
78731;SHT31;68055;51.978;5.658;2024-02-26T16:44:03;9.1;67.6
78731;SHT31;68055;51.978;5.658;2024-02-26T16:46:33;9.1;67.5
78731;SHT31;68055;51.978;5.658;2024-02-26T16:49:01;9.1;67.4
78731;SHT31;68055;51.978;5.658;2024-02-26T16:51:30;9.1;67.4
78731;SHT31;68055;51.978;5.658;2024-02-26T16:53:59;9.1;67.2
78731;SHT31;68055;51.978;5.658;2024-02-26T16:56:27;9.1;67.4
78731;SHT31;68055;51.978;5.658;2024-02-26T16:58:56;9.1;67.3
78731;SHT31;68055;51.978;5.658;2024-02-26T17:01:25;9.1;66.8
78731;SHT31;68055;51.978;5.658;2024-02-26T17:03:53;9.0;67.0
78731;SHT31;68055;51.978;5.658;2024-02-26T17:06:24;9.0;66.9
78731;SHT31;68055;51.978;5.658;2024-02-26T17:08:54;9.0;66.8
78731;SHT31;68055;51.978;5.658;2024-02-26T17:11:22;9.0;66.8
78731;SHT31;68055;51.978;5.658;2024-02-26T17:13:54;8.9;67.3
78731;SHT31;68055;51.978;5.658;2024-02-26T17:16:22;8.9;67.1
78731;SHT31;68055;51.978;5.658;2024-02-26T17:18:51;8.9;67.3
78731;SHT31;68055;51.978;5.658;2024-02-26T17:21:20;8.9;67.5
78731;SHT31;68055;51.978;5.658;2024-02-26T17:23:49;8.9;67.5
78731;SHT31;68055;51.978;5.658;2024-02-26T17:26:22;8.9;67.3
78731;SHT31;68055;51.978;5.658;2024-02-26T17:28:52;8.9;66.7
78731;SHT31;68055;51.978;5.658;2024-02-26T17:31:20;8.8;67.0
78731;SHT31;68055;51.978;5.658;2024-02-26T17:33:53;8.8;67.0
78731;SHT31;68055;51.978;5.658;2024-02-26T17:36:22;8.8;67.3
78731;SHT31;68055;51.978;5.658;2024-02-26T17:38:50;8.7;66.9
78731;SHT31;68055;51.978;5.658;2024-02-26T17:41:19;8.7;67.0
78731;SHT31;68055;51.978;5.658;2024-02-26T17:43:47;8.7;67.1
78731;SHT31;68055;51.978;5.658;2024-02-26T17:46:16;8.7;67.1
78731;SHT31;68055;51.978;5.658;2024-02-26T17:48:44;8.7;67.0
78731;SHT31;68055;51.978;5.658;2024-02-26T17:51:13;8.7;67.1
78731;SHT31;68055;51.978;5.658;2024-02-26T17:53:43;8.6;67.4
78731;SHT31;68055;51.978;5.658;2024-02-26T17:56:14;8.6;67.5
78731;SHT31;68055;51.978;5.658;2024-02-26T17:58:43;8.6;67.6
78731;SHT31;68055;51.978;5.658;2024-02-26T18:01:13;8.6;67.8
78731;SHT31;68055;51.978;5.658;2024-02-26T18:03:42;8.6;67.6
78731;SHT31;68055;51.978;5.658;2024-02-26T18:06:11;8.6;67.6
78731;SHT31;68055;51.978;5.658;2024-02-26T18:08:40;8.6;67.9
78731;SHT31;68055;51.978;5.658;2024-02-26T18:11:09;8.6;67.5
78731;SHT31;68055;51.978;5.658;2024-02-26T18:13:40;8.6;67.3
78731;SHT31;68055;51.978;5.658;2024-02-26T18:16:11;8.6;67.3
78731;SHT31;68055;51.978;5.658;2024-02-26T18:18:40;8.5;67.0
78731;SHT31;68055;51.978;5.658;2024-02-26T18:21:12;8.5;67.1
78731;SHT31;68055;51.978;5.658;2024-02-26T18:23:42;8.5;67.2
78731;SHT31;68055;51.978;5.658;2024-02-26T18:26:11;8.4;67.4
78731;SHT31;68055;51.978;5.658;2024-02-26T18:28:45;8.4;67.7
78731;SHT31;68055;51.978;5.658;2024-02-26T18:31:14;8.4;67.4
78731;SHT31;68055;51.978;5.658;2024-02-26T18:33:42;8.4;67.5
78731;SHT31;68055;51.978;5.658;2024-02-26T18:36:13;8.3;67.5
78731;SHT31;68055;51.978;5.658;2024-02-26T18:38:47;8.3;67.6
78731;SHT31;68055;51.978;5.658;2024-02-26T18:41:19;8.3;67.8
78731;SHT31;68055;51.978;5.658;2024-02-26T18:43:49;8.2;67.6
78731;SHT31;68055;51.978;5.658;2024-02-26T18:46:20;8.2;67.9
78731;SHT31;68055;51.978;5.658;2024-02-26T18:48:50;8.2;67.8
78731;SHT31;68055;51.978;5.658;2024-02-26T18:51:19;8.2;67.5
78731;SHT31;68055;51.978;5.658;2024-02-26T18:53:48;8.1;67.7
78731;SHT31;68055;51.978;5.658;2024-02-26T18:56:16;8.1;67.7
78731;SHT31;68055;51.978;5.658;2024-02-26T18:58:47;8.1;68.1
78731;SHT31;68055;51.978;5.658;2024-02-26T19:01:16;8.1;68.1
78731;SHT31;68055;51.978;5.658;2024-02-26T19:03:44;8.1;67.8
78731;SHT31;68055;51.978;5.658;2024-02-26T19:06:13;8.0;67.7
78731;SHT31;68055;51.978;5.658;2024-02-26T19:08:43;8.0;67.9
78731;SHT31;68055;51.978;5.658;2024-02-26T19:11:12;8.0;67.6
78731;SHT31;68055;51.978;5.658;2024-02-26T19:13:41;8.0;67.7
78731;SHT31;68055;51.978;5.658;2024-02-26T19:16:10;8.0;67.9
78731;SHT31;68055;51.978;5.658;2024-02-26T19:18:39;7.9;68.1
78731;SHT31;68055;51.978;5.658;2024-02-26T19:21:09;7.9;68.3
78731;SHT31;68055;51.978;5.658;2024-02-26T19:23:38;7.9;68.2
78731;SHT31;68055;51.978;5.658;2024-02-26T19:26:06;7.9;68.3
78731;SHT31;68055;51.978;5.658;2024-02-26T19:28:35;7.9;68.6
78731;SHT31;68055;51.978;5.658;2024-02-26T19:31:04;7.9;68.0
78731;SHT31;68055;51.978;5.658;2024-02-26T19:33:35;7.9;68.3
78731;SHT31;68055;51.978;5.658;2024-02-26T19:36:04;7.9;68.1
78731;SHT31;68055;51.978;5.658;2024-02-26T19:38:33;7.9;67.9
78731;SHT31;68055;51.978;5.658;2024-02-26T19:41:01;7.9;68.1
78731;SHT31;68055;51.978;5.658;2024-02-26T19:43:30;7.9;68.2
78731;SHT31;68055;51.978;5.658;2024-02-26T19:45:59;7.9;67.8
78731;SHT31;68055;51.978;5.658;2024-02-26T19:48:28;7.9;67.8
78731;SHT31;68055;51.978;5.658;2024-02-26T19:50:57;7.9;68.0
78731;SHT31;68055;51.978;5.658;2024-02-26T19:53:26;7.9;67.7
78731;SHT31;68055;51.978;5.658;2024-02-26T19:55:54;7.9;67.9
78731;SHT31;68055;51.978;5.658;2024-02-26T19:58:24;7.9;67.5
78731;SHT31;68055;51.978;5.658;2024-02-26T20:00:53;7.9;67.4
78731;SHT31;68055;51.978;5.658;2024-02-26T20:03:22;7.9;67.4
78731;SHT31;68055;51.978;5.658;2024-02-26T20:05:50;7.9;67.6
78731;SHT31;68055;51.978;5.658;2024-02-26T20:08:19;7.9;67.8
78731;SHT31;68055;51.978;5.658;2024-02-26T20:10:47;7.9;67.8
78731;SHT31;68055;51.978;5.658;2024-02-26T20:13:17;7.9;67.8
78731;SHT31;68055;51.978;5.658;2024-02-26T20:15:51;7.9;67.7
78731;SHT31;68055;51.978;5.658;2024-02-26T20:18:20;7.9;67.8
78731;SHT31;68055;51.978;5.658;2024-02-26T20:20:49;7.9;67.7
78731;SHT31;68055;51.978;5.658;2024-02-26T20:23:18;7.9;67.7
78731;SHT31;68055;51.978;5.658;2024-02-26T20:25:47;7.9;67.5
78731;SHT31;68055;51.978;5.658;2024-02-26T20:28:15;7.9;67.8
78731;SHT31;68055;51.978;5.658;2024-02-26T20:30:44;7.9;67.9
78731;SHT31;68055;51.978;5.658;2024-02-26T20:33:12;7.9;67.8
78731;SHT31;68055;51.978;5.658;2024-02-26T20:35:41;7.9;67.6
78731;SHT31;68055;51.978;5.658;2024-02-26T20:38:09;7.9;67.4
78731;SHT31;68055;51.978;5.658;2024-02-26T20:40:38;7.9;67.6
78731;SHT31;68055;51.978;5.658;2024-02-26T20:43:08;7.9;67.5
78731;SHT31;68055;51.978;5.658;2024-02-26T20:45:36;7.9;67.5
78731;SHT31;68055;51.978;5.658;2024-02-26T20:48:06;7.9;67.7
78731;SHT31;68055;51.978;5.658;2024-02-26T20:50:36;7.9;67.8
78731;SHT31;68055;51.978;5.658;2024-02-26T20:53:07;7.9;67.4
78731;SHT31;68055;51.978;5.658;2024-02-26T20:55:37;7.9;67.6
78731;SHT31;68055;51.978;5.658;2024-02-26T20:58:07;7.9;67.8
78731;SHT31;68055;51.978;5.658;2024-02-26T21:00:36;7.9;67.7
78731;SHT31;68055;51.978;5.658;2024-02-26T21:03:05;7.9;67.6
78731;SHT31;68055;51.978;5.658;2024-02-26T21:05:35;7.9;67.7
78731;SHT31;68055;51.978;5.658;2024-02-26T21:08:04;7.9;67.5
78731;SHT31;68055;51.978;5.658;2024-02-26T21:10:33;7.9;67.4
78731;SHT31;68055;51.978;5.658;2024-02-26T21:13:02;7.9;67.6
78731;SHT31;68055;51.978;5.658;2024-02-26T21:15:31;7.9;67.3
78731;SHT31;68055;51.978;5.658;2024-02-26T21:17:59;7.9;67.7
78731;SHT31;68055;51.978;5.658;2024-02-26T21:20:28;7.9;67.7
78731;SHT31;68055;51.978;5.658;2024-02-26T21:22:58;7.9;67.3
78731;SHT31;68055;51.978;5.658;2024-02-26T21:25:28;7.9;67.3
78731;SHT31;68055;51.978;5.658;2024-02-26T21:27:56;7.9;67.3
78731;SHT31;68055;51.978;5.658;2024-02-26T21:30:26;8.0;67.3
78731;SHT31;68055;51.978;5.658;2024-02-26T21:32:55;8.0;67.1
78731;SHT31;68055;51.978;5.658;2024-02-26T21:35:26;8.0;67.1
78731;SHT31;68055;51.978;5.658;2024-02-26T21:37:54;8.0;67.0
78731;SHT31;68055;51.978;5.658;2024-02-26T21:40:25;8.0;66.9
78731;SHT31;68055;51.978;5.658;2024-02-26T21:42:53;8.0;66.9
78731;SHT31;68055;51.978;5.658;2024-02-26T21:45:22;8.0;66.9
78731;SHT31;68055;51.978;5.658;2024-02-26T21:47:50;8.0;66.7
78731;SHT31;68055;51.978;5.658;2024-02-26T21:50:21;8.0;66.8
78731;SHT31;68055;51.978;5.658;2024-02-26T21:52:49;8.0;66.7
78731;SHT31;68055;51.978;5.658;2024-02-26T21:55:18;8.0;66.6
78731;SHT31;68055;51.978;5.658;2024-02-26T21:57:47;8.0;66.6
78731;SHT31;68055;51.978;5.658;2024-02-26T22:00:16;8.0;66.7
78731;SHT31;68055;51.978;5.658;2024-02-26T22:02:45;8.0;66.4
78731;SHT31;68055;51.978;5.658;2024-02-26T22:05:13;8.0;66.3
78731;SHT31;68055;51.978;5.658;2024-02-26T22:07:42;8.0;66.6
78731;SHT31;68055;51.978;5.658;2024-02-26T22:10:11;8.0;66.3
78731;SHT31;68055;51.978;5.658;2024-02-26T22:12:42;8.0;66.4
78731;SHT31;68055;51.978;5.658;2024-02-26T22:15:11;8.0;66.1
78731;SHT31;68055;51.978;5.658;2024-02-26T22:17:39;8.0;66.0
78731;SHT31;68055;51.978;5.658;2024-02-26T22:20:09;8.0;66.1
78731;SHT31;68055;51.978;5.658;2024-02-26T22:22:38;8.0;66.1
78731;SHT31;68055;51.978;5.658;2024-02-26T22:25:11;8.0;65.9
78731;SHT31;68055;51.978;5.658;2024-02-26T22:27:40;8.0;66.1
78731;SHT31;68055;51.978;5.658;2024-02-26T22:30:10;8.0;66.1
78731;SHT31;68055;51.978;5.658;2024-02-26T22:32:38;8.0;66.0
78731;SHT31;68055;51.978;5.658;2024-02-26T22:35:07;8.0;65.9
78731;SHT31;68055;51.978;5.658;2024-02-26T22:37:36;8.0;66.0
78731;SHT31;68055;51.978;5.658;2024-02-26T22:40:07;8.0;65.8
78731;SHT31;68055;51.978;5.658;2024-02-26T22:42:36;8.0;65.8
78731;SHT31;68055;51.978;5.658;2024-02-26T22:45:06;8.0;66.0
78731;SHT31;68055;51.978;5.658;2024-02-26T22:47:34;8.0;65.9
78731;SHT31;68055;51.978;5.658;2024-02-26T22:50:03;8.0;66.0
78731;SHT31;68055;51.978;5.658;2024-02-26T22:52:32;8.0;66.1
78731;SHT31;68055;51.978;5.658;2024-02-26T22:55:01;8.0;65.8
78731;SHT31;68055;51.978;5.658;2024-02-26T22:57:31;8.0;65.8
78731;SHT31;68055;51.978;5.658;2024-02-26T23:00:02;8.0;65.9
78731;SHT31;68055;51.978;5.658;2024-02-26T23:02:37;8.0;65.8
78731;SHT31;68055;51.978;5.658;2024-02-26T23:05:06;8.0;65.8
78731;SHT31;68055;51.978;5.658;2024-02-26T23:07:37;8.0;65.7
78731;SHT31;68055;51.978;5.658;2024-02-26T23:10:06;8.0;65.9
78731;SHT31;68055;51.978;5.658;2024-02-26T23:12:35;8.0;65.6
78731;SHT31;68055;51.978;5.658;2024-02-26T23:15:04;8.0;65.8
78731;SHT31;68055;51.978;5.658;2024-02-26T23:17:33;8.0;65.8
78731;SHT31;68055;51.978;5.658;2024-02-26T23:20:03;8.0;65.4
78731;SHT31;68055;51.978;5.658;2024-02-26T23:22:35;8.0;65.5
78731;SHT31;68055;51.978;5.658;2024-02-26T23:25:07;8.0;65.6
78731;SHT31;68055;51.978;5.658;2024-02-26T23:27:36;8.0;65.5
78731;SHT31;68055;51.978;5.658;2024-02-26T23:30:05;8.0;65.6
78731;SHT31;68055;51.978;5.658;2024-02-26T23:32:36;8.0;65.4
78731;SHT31;68055;51.978;5.658;2024-02-26T23:35:07;8.0;65.6
78731;SHT31;68055;51.978;5.658;2024-02-26T23:37:36;8.0;65.5
78731;SHT31;68055;51.978;5.658;2024-02-26T23:40:06;8.0;65.4
78731;SHT31;68055;51.978;5.658;2024-02-26T23:42:39;8.0;65.8
78731;SHT31;68055;51.978;5.658;2024-02-26T23:45:08;8.0;65.4
78731;SHT31;68055;51.978;5.658;2024-02-26T23:47:36;7.9;65.6
78731;SHT31;68055;51.978;5.658;2024-02-26T23:50:05;7.9;65.6
78731;SHT31;68055;51.978;5.658;2024-02-26T23:52:34;7.9;65.6
78731;SHT31;68055;51.978;5.658;2024-02-26T23:55:03;7.9;65.7
78731;SHT31;68055;51.978;5.658;2024-02-26T23:57:32;7.9;65.8
